QRA weather

Rand Airport
Johannesburg, Gauteng, South Africa

Public forecast

Using degrees Celsius for public forecast. Weather courtesy of forecast.io.

Current aviation weather report (METAR) for Rand Airport

Report is more than 6 hours old.

Retrieved 2019/10/19 14:00 UTC (15 hours ago):

FAGM 191400Z VRB03KT 9999 BKN020 28/M02 Q1022

Closest aviation forecast (TAF) to Rand Airport

Closest forecast is OR Tambo International Airport, 8.0 nm (14.9 km) NE. Retrieved 2019-10-20 00:00 UTC (5 hours ago):

TAF FAOR 192200Z 2000/2106 VRB03KT CAVOK TX31/2013Z TN18/2004Z BECMG 2007/2009 30012KT PROB30 TEMPO 2013/2018 35015G25KT -TSRA FEW055CB BECMG 2016/2018 VRB03KT